Time;durP1;ratioP1;P1;durP2;ratioP2;P2;SDS_P1;SDS_P2;PMS_P1;PMS_P2;Temp;Humidity;BMP_temperature;BMP_pressure;BME280_temperature;BME280_humidity;BME280_pressure;Samples;Min_cycle;Max_cycle;Signal;HPM_P1;HPM_P2
2022/03/23 00:01:39;;;;;;;18.87;8.83;;;;;;;3.89;77.81;101715.94;5013077;28;20026;-74
2022/03/23 00:04:05;;;;;;;29.70;18.23;;;;;;;3.87;77.94;101714.91;5013036;28;20061;-73
2022/03/23 00:06:32;;;;;;;32.57;19.57;;;;;;;3.85;78.15;101711.31;5013223;28;20026;-73
2022/03/23 00:08:57;;;;;;;22.97;16.67;;;;;;;3.75;78.43;101718.97;5011748;28;20373;-73
2022/03/23 00:11:24;;;;;;;18.27;10.30;;;;;;;3.72;77.78;101689.84;5011771;28;20045;-73
2022/03/23 00:13:50;;;;;;;34.47;28.57;;;;;;;3.44;77.99;101650.88;5011770;28;20029;-73
2022/03/23 00:16:15;;;;;;;16.83;11.17;;;;;;;3.78;77.54;101694.56;5012767;28;20392;-75
2022/03/23 00:18:41;;;;;;;21.80;10.40;;;;;;;3.80;77.42;101700.72;5012944;28;20457;-75
2022/03/23 00:21:06;;;;;;;13.97;8.30;;;;;;;3.83;77.18;101716.28;5013000;28;20030;-75
2022/03/23 00:23:32;;;;;;;15.77;8.53;;;;;;;3.62;77.00;101656.63;5012606;28;20068;-74
2022/03/23 00:25:59;;;;;;;14.57;9.03;;;;;;;3.46;78.02;101692.75;5012569;28;20487;-73
2022/03/23 00:28:26;;;;;;;17.20;8.70;;;;;;;3.39;79.17;101706.66;5012751;28;20373;-74
2022/03/23 00:30:53;;;;;;;14.97;7.80;;;;;;;3.27;79.66;101692.84;5011163;28;20125;-74
2022/03/23 00:33:21;;;;;;;14.20;8.37;;;;;;;3.24;79.45;101684.94;5012392;28;20061;-76
2022/03/23 00:35:48;;;;;;;14.20;7.60;;;;;;;3.31;79.01;101686.34;5012633;28;20492;-74
2022/03/23 00:38:15;;;;;;;13.97;8.33;;;;;;;3.20;79.18;101687.97;5012334;28;20022;-75
2022/03/23 00:40:41;;;;;;;15.70;8.00;;;;;;;3.31;78.55;101699.09;5012531;28;20489;-75
2022/03/23 00:43:06;;;;;;;17.23;7.43;;;;;;;3.45;77.32;101713.94;5012437;28;20030;-75
2022/03/23 00:45:32;;;;;;;14.40;7.20;;;;;;;3.37;77.66;101708.16;5012255;28;20037;-74
2022/03/23 00:47:57;;;;;;;14.70;7.57;;;;;;;3.09;77.99;101671.75;5012466;28;20464;-75
2022/03/23 00:50:23;;;;;;;15.57;7.73;;;;;;;3.35;77.13;101696.03;5012176;28;20412;-76
2022/03/23 00:52:49;;;;;;;13.90;7.20;;;;;;;3.05;77.91;101660.38;5012510;28;20045;-77
2022/03/23 00:55:15;;;;;;;25.43;15.53;;;;;;;2.87;78.90;101694.47;5013563;28;20037;-77
2022/03/23 00:57:41;;;;;;;20.50;11.57;;;;;;;2.79;79.22;101673.41;5012492;28;20488;-77
2022/03/23 01:00:12;;;;;;;15.50;8.67;;;;;;;2.66;80.50;101707.13;5010749;28;20026;-77
2022/03/23 01:02:39;;;;;;;67.73;54.27;;;;;;;2.60;80.71;101678.53;5011651;28;20036;-78
2022/03/23 01:05:05;;;;;;;23.10;15.17;;;;;;;2.96;79.63;101696.94;5011365;28;20033;-78
2022/03/23 01:07:31;;;;;;;11.60;7.47;;;;;;;2.62;79.54;101653.16;5009958;28;20030;-81
2022/03/23 01:09:56;;;;;;;11.10;6.50;;;;;;;2.95;78.83;101687.50;5012410;28;20030;-75
2022/03/23 01:12:22;;;;;;;14.27;6.97;;;;;;;3.03;77.95;101679.75;5011901;28;20026;-77
2022/03/23 01:14:48;;;;;;;14.07;7.40;;;;;;;3.11;77.68;101677.84;5012293;28;20042;-75
2022/03/23 01:17:13;;;;;;;11.67;6.83;;;;;;;3.31;76.90;101684.66;5011715;28;20037;-77
2022/03/23 01:19:40;;;;;;;16.00;7.93;;;;;;;3.49;75.97;101684.44;5011880;28;20030;-77
2022/03/23 01:22:06;;;;;;;14.97;6.90;;;;;;;3.64;74.81;101666.97;5011954;28;20073;-77
2022/03/23 01:24:32;;;;;;;21.50;9.07;;;;;;;3.63;72.92;101624.34;5011976;28;20500;-77
2022/03/23 01:26:57;;;;;;;14.43;7.03;;;;;;;4.02;73.77;101688.06;5011514;28;20034;-78
2022/03/23 01:29:22;;;;;;;13.77;6.40;;;;;;;4.12;73.74;101691.38;5011453;28;20030;-77
2022/03/23 01:31:48;;;;;;;14.50;6.27;;;;;;;4.21;72.98;101684.47;5010658;28;20075;-75
2022/03/23 01:34:15;;;;;;;12.53;6.53;;;;;;;4.23;72.65;101703.38;5010910;28;20105;-77
2022/03/23 01:36:40;;;;;;;9.30;5.87;;;;;;;3.98;72.42;101644.25;5026486;28;20411;-78
2022/03/23 01:39:06;;;;;;;15.47;7.93;;;;;;;4.09;72.53;101663.00;5030567;28;20108;-77
2022/03/23 01:41:35;;;;;;;15.00;7.50;;;;;;;4.29;72.23;101700.47;5012967;28;20472;-78
2022/03/23 01:44:00;;;;;;;12.85;6.50;;;;;;;4.26;71.59;101678.09;5010097;28;20030;-77
2022/03/23 01:46:26;;;;;;;12.20;6.60;;;;;;;4.09;71.08;101680.91;5010585;28;20516;-78
2022/03/23 01:48:51;;;;;;;11.63;7.33;;;;;;;3.71;72.20;101671.84;5009544;28;20041;-78
2022/03/23 01:51:17;;;;;;;13.47;6.37;;;;;;;3.13;73.07;101583.56;5009218;28;20030;-79
2022/03/23 01:53:43;;;;;;;12.17;6.33;;;;;;;3.92;72.13;101698.28;5009156;28;20083;-79
2022/03/23 01:56:11;;;;;;;11.33;7.07;;;;;;;3.64;72.78;101678.09;5008961;28;20056;-80
2022/03/23 01:58:37;;;;;;;17.67;8.57;;;;;;;3.24;74.16;101650.06;5010648;28;20076;-77
2022/03/23 02:01:03;;;;;;;15.07;8.50;;;;;;;3.37;73.65;101669.88;5009259;28;20022;-77
2022/03/23 02:03:29;;;;;;;15.10;7.27;;;;;;;3.27;73.64;101658.78;5010581;28;20053;-79
2022/03/23 02:05:54;;;;;;;16.03;7.47;;;;;;;3.39;73.04;101685.34;5011214;28;20061;-77
2022/03/23 02:08:20;;;;;;;11.27;7.07;;;;;;;3.35;73.28;101683.28;5009625;28;20021;-77
2022/03/23 02:10:46;;;;;;;17.77;7.93;;;;;;;3.31;73.71;101701.66;5009368;28;20033;-78
2022/03/23 02:13:11;;;;;;;16.23;8.30;;;;;;;3.33;72.62;101675.50;5009359;28;20461;-78
2022/03/23 02:15:37;;;;;;;21.23;8.47;;;;;;;2.95;73.13;101636.47;5010655;28;20026;-78
2022/03/23 02:18:03;;;;;;;13.60;8.10;;;;;;;3.26;73.37;101703.81;5009847;28;20022;-77
2022/03/23 02:20:29;;;;;;;16.70;8.93;;;;;;;3.28;73.45;101701.38;5009589;28;20472;-74
2022/03/23 02:22:55;;;;;;;14.13;7.80;;;;;;;3.15;73.65;101705.41;5010923;28;20036;-75
2022/03/23 02:25:26;;;;;;;15.00;7.47;;;;;;;3.00;74.01;101701.53;5010465;28;20037;-75
2022/03/23 02:27:53;;;;;;;14.93;7.47;;;;;;;3.08;73.70;101698.91;5010798;28;20117;-75
2022/03/23 02:30:19;;;;;;;16.80;8.27;;;;;;;3.19;73.64;101704.94;5010924;28;20030;-73
2022/03/23 02:32:45;;;;;;;18.83;9.00;;;;;;;3.28;73.41;101697.19;5010487;28;20029;-75
2022/03/23 02:35:11;;;;;;;16.70;7.53;;;;;;;3.08;72.60;101652.09;5010634;28;20037;-75
2022/03/23 02:37:38;;;;;;;11.60;5.70;;;;;;;3.12;70.86;101694.94;5010806;28;20087;-76
2022/03/23 02:40:04;;;;;;;10.63;6.27;;;;;;;3.03;71.20;101684.84;5010503;28;20057;-75
2022/03/23 02:42:30;;;;;;;18.13;7.43;;;;;;;2.92;72.01;101704.31;5010422;28;20489;-76
2022/03/23 02:44:55;;;;;;;10.17;6.03;;;;;;;2.59;73.23;101658.88;5010754;28;20040;-75
2022/03/23 02:47:20;;;;;;;14.97;7.40;;;;;;;2.64;72.99;101695.91;5010684;28;20029;-76
2022/03/23 02:49:46;;;;;;;11.20;7.00;;;;;;;2.68;73.58;101692.88;5010400;28;20030;-76
2022/03/23 02:52:11;;;;;;;15.90;6.33;;;;;;;2.83;74.03;101705.16;5010454;28;20068;-76
2022/03/23 03:03:13;;;;;;;17.23;8.40;;;;;;;3.15;72.28;101704.53;5014094;28;20044;-75
2022/03/23 03:05:39;;;;;;;14.17;7.17;;;;;;;3.15;72.14;101712.19;5014521;28;20025;-75
2022/03/23 03:10:48;;;;;;;12.80;6.97;;;;;;;2.43;74.03;101680.47;5014514;28;20411;-75
2022/03/23 03:13:14;;;;;;;10.67;6.50;;;;;;;2.66;73.81;101709.66;5013526;28;20026;-75
2022/03/23 03:15:39;;;;;;;13.30;6.57;;;;;;;2.63;72.99;101706.88;5014308;28;20715;-75
2022/03/23 03:18:05;;;;;;;13.30;6.90;;;;;;;2.52;72.73;101707.56;5014183;28;20690;-75
2022/03/23 03:20:30;;;;;;;13.30;7.67;;;;;;;2.20;74.19;101724.28;5014242;28;20038;-74
2022/03/23 03:22:56;;;;;;;14.40;7.77;;;;;;;2.09;75.22;101694.38;5014178;28;20033;-75
2022/03/23 03:25:21;;;;;;;15.30;8.57;;;;;;;2.30;74.80;101704.75;5014153;28;20104;-72
2022/03/23 03:27:47;;;;;;;21.23;8.90;;;;;;;2.01;74.60;101686.06;5013933;28;20370;-74
2022/03/23 03:30:15;;;;;;;11.47;6.27;;;;;;;0.89;77.58;101671.47;5013728;28;20037;-75
2022/03/23 03:32:41;;;;;;;11.50;6.17;;;;;;;1.29;77.99;101723.53;5013844;28;20033;-74
2022/03/23 03:35:07;;;;;;;9.33;5.30;;;;;;;1.37;76.81;101727.72;5013655;28;20132;-76
2022/03/23 03:37:34;;;;;;;11.77;5.60;;;;;;;1.44;76.47;101729.19;5013769;28;20481;-75
2022/03/23 03:40:00;;;;;;;10.27;5.47;;;;;;;1.63;75.17;101719.06;5013756;28;20072;-75
2022/03/23 03:42:26;;;;;;;12.53;6.93;;;;;;;1.83;75.51;101722.56;5013563;28;20061;-76
2022/03/23 03:44:52;;;;;;;13.07;7.40;;;;;;;2.08;73.97;101713.88;5012335;28;20029;-77
2022/03/23 03:47:19;;;;;;;14.90;6.33;;;;;;;1.81;73.07;101690.97;5013340;28;20500;-76
2022/03/23 03:49:44;;;;;;;12.87;5.73;;;;;;;1.72;73.06;101684.28;5013662;28;20049;-75
2022/03/23 03:52:10;;;;;;;27.77;6.23;;;;;;;1.55;74.28;101715.81;5013270;28;20030;-75
2022/03/23 03:54:35;;;;;;;10.77;5.00;;;;;;;1.38;75.24;101716.75;5013216;28;20030;-74
2022/03/23 03:57:01;;;;;;;43.43;20.63;;;;;;;1.23;75.37;101715.34;5012872;28;20046;-74
2022/03/23 03:59:26;;;;;;;21.50;10.40;;;;;;;0.96;76.01;101711.97;5013362;28;20030;-74
2022/03/23 04:01:52;;;;;;;17.57;10.70;;;;;;;0.78;76.69;101694.19;5013167;28;20436;-74
2022/03/23 04:04:17;;;;;;;23.77;16.43;;;;;;;0.99;76.36;101717.34;5011730;28;20060;-74
2022/03/23 04:06:42;;;;;;;30.30;21.97;;;;;;;1.11;76.01;101710.00;5012914;28;20033;-72
2022/03/23 04:09:08;;;;;;;19.90;13.37;;;;;;;1.22;75.14;101696.66;5026741;28;20045;-76
2022/03/23 04:11:35;;;;;;;18.07;7.60;;;;;;;1.19;75.04;101700.53;5012568;28;20033;-74
2022/03/23 04:14:00;;;;;;;16.60;6.30;;;;;;;0.66;74.32;101558.34;5028354;28;20129;-76
2022/03/23 04:16:26;;;;;;;12.63;7.30;;;;;;;1.66;74.05;101696.44;5013042;28;20116;-75
2022/03/23 04:18:51;;;;;;;15.47;7.83;;;;;;;1.56;72.80;101653.09;5013054;28;20079;-74
2022/03/23 04:21:17;;;;;;;16.63;7.90;;;;;;;1.81;71.78;101689.31;5013390;28;20474;-74
2022/03/23 04:23:42;;;;;;;13.40;6.60;;;;;;;1.90;71.83;101707.97;5012721;28;20503;-75
2022/03/23 04:26:08;;;;;;;10.07;5.97;;;;;;;1.90;71.40;101728.34;5012268;28;20033;-75
2022/03/23 04:28:33;;;;;;;15.27;6.67;;;;;;;1.86;71.19;101723.75;5011432;28;20076;-75
2022/03/23 04:31:00;;;;;;;14.67;6.90;;;;;;;1.84;70.96;101701.44;5012652;28;20029;-75
2022/03/23 04:33:25;;;;;;;30.43;12.30;;;;;;;1.85;71.02;101703.25;5012700;28;20030;-78
2022/03/23 04:35:51;;;;;;;24.03;14.10;;;;;;;1.91;71.60;101716.53;5012395;28;20021;-76
2022/03/23 04:38:16;;;;;;;34.03;17.87;;;;;;;1.88;71.75;101729.88;5012515;28;20030;-76
2022/03/23 04:40:42;;;;;;;42.97;22.67;;;;;;;1.78;71.48;101676.31;5012655;28;20057;-79
2022/03/23 04:43:07;;;;;;;37.07;20.33;;;;;;;1.89;71.11;101716.38;5012335;28;20361;-79
2022/03/23 04:45:33;;;;;;;30.03;14.63;;;;;;;1.55;72.81;101700.53;5012561;28;20377;-79
2022/03/23 04:47:58;;;;;;;16.33;8.40;;;;;;;1.55;74.25;101710.72;5012439;28;20480;-76
2022/03/23 04:50:24;;;;;;;15.67;5.97;;;;;;;1.42;75.33;101708.69;5011217;28;20018;-78
2022/03/23 04:52:52;;;;;;;13.27;6.07;;;;;;;1.47;76.12;101723.47;5012671;28;20061;-78
2022/03/23 04:55:18;;;;;;;12.17;5.83;;;;;;;1.42;76.77;101730.69;5010935;28;20457;-77
2022/03/23 04:57:43;;;;;;;11.27;6.50;;;;;;;1.45;76.70;101711.50;5012246;28;20436;-71
2022/03/23 05:00:13;;;;;;;16.57;9.90;;;;;;;1.61;76.65;101707.88;5012291;28;20025;-74
2022/03/23 05:02:39;;;;;;;25.40;14.55;;;;;;;1.55;76.71;101677.63;5012093;28;20440;-73
2022/03/23 05:05:10;;;;;;;15.47;7.67;;;;;;;1.33;76.84;101613.66;5012264;28;20026;-73
2022/03/23 05:07:36;;;;;;;34.10;19.03;;;;;;;2.01;77.72;101716.63;5012254;28;20080;-73
2022/03/23 05:10:02;;;;;;;29.63;16.57;;;;;;;2.02;76.80;101718.41;5011449;28;20456;-73
2022/03/23 05:12:28;;;;;;;35.60;18.47;;;;;;;1.98;76.78;101720.53;5011657;28;20038;-73
2022/03/23 05:14:54;;;;;;;20.70;10.80;;;;;;;1.66;77.44;101673.53;5011991;28;20041;-70
2022/03/23 05:17:20;;;;;;;11.63;4.97;;;;;;;1.87;77.66;101723.00;5011598;28;20042;-75
2022/03/23 05:19:45;;;;;;;10.90;5.13;;;;;;;1.83;77.82;101705.63;5011123;28;20397;-76
2022/03/23 05:22:12;;;;;;;9.83;3.70;;;;;;;1.84;77.63;101701.44;5011383;28;20033;-75
2022/03/23 05:24:38;;;;;;;9.50;3.70;;;;;;;1.91;77.85;101730.16;5011354;28;20467;-74
2022/03/23 05:27:04;;;;;;;10.60;3.87;;;;;;;1.98;78.13;101718.91;5010614;28;20077;-77
2022/03/23 05:29:30;;;;;;;10.27;4.07;;;;;;;2.02;77.95;101720.03;5010900;28;20468;-75
2022/03/23 05:31:55;;;;;;;10.00;4.27;;;;;;;1.81;78.43;101681.69;5009681;28;20029;-76
2022/03/23 05:34:20;;;;;;;12.33;4.20;;;;;;;2.11;77.73;101713.25;5010979;28;20472;-76
2022/03/23 05:36:46;;;;;;;11.83;4.63;;;;;;;2.33;77.30;101727.94;5010733;28;20033;-76
2022/03/23 05:39:12;;;;;;;19.40;8.90;;;;;;;2.39;77.41;101714.13;5009030;28;20026;-73
2022/03/23 05:41:38;;;;;;;10.13;6.87;;;;;;;2.68;75.52;101736.22;5010543;28;20033;-72
2022/03/23 05:44:04;;;;;;;9.17;5.80;;;;;;;2.81;74.31;101729.66;5010398;28;20030;-74
2022/03/23 05:46:31;;;;;;;9.87;4.30;;;;;;;2.93;73.85;101723.09;5012553;28;20042;-74
2022/03/23 05:48:57;;;;;;;7.63;3.73;;;;;;;3.01;73.38;101695.69;5010948;28;20535;-73
2022/03/23 05:51:23;;;;;;;11.80;5.60;;;;;;;3.47;74.38;101729.41;5019831;28;20025;-77
2022/03/23 05:53:49;;;;;;;14.77;5.27;;;;;;;3.62;73.61;101727.25;5030886;28;20032;-77
2022/03/23 05:56:15;;;;;;;8.40;5.07;;;;;;;3.93;71.96;101729.84;5022531;28;20022;-74
2022/03/23 05:58:40;;;;;;;11.73;4.70;;;;;;;4.08;71.08;101720.03;5011004;28;20386;-75
2022/03/23 06:01:06;;;;;;;16.73;4.97;;;;;;;3.76;69.43;101673.09;5010854;28;20056;-75
2022/03/23 06:03:31;;;;;;;18.57;4.63;;;;;;;4.08;69.07;101735.34;5009776;28;20088;-75
2022/03/23 06:05:58;;;;;;;15.53;4.70;;;;;;;4.18;69.56;101737.91;5011276;28;20022;-76
2022/03/23 06:08:25;;;;;;;9.37;3.97;;;;;;;4.22;68.48;101737.38;5010869;28;20432;-76
2022/03/23 06:10:51;;;;;;;9.50;3.67;;;;;;;4.13;68.25;101706.84;5009735;28;20117;-76
2022/03/23 06:13:17;;;;;;;22.23;5.53;;;;;;;4.42;67.93;101735.59;5010695;28;20511;-75
2022/03/23 06:15:43;;;;;;;12.77;3.87;;;;;;;4.33;67.72;101694.81;5010535;28;20109;-75
2022/03/23 06:18:08;;;;;;;8.30;3.70;;;;;;;4.67;66.56;101739.38;5010389;28;20105;-75
2022/03/23 06:20:34;;;;;;;15.73;4.50;;;;;;;4.78;65.86;101731.69;5009969;28;20029;-75
2022/03/23 06:22:59;;;;;;;16.10;4.63;;;;;;;4.90;66.67;101730.09;5009990;28;20469;-72
2022/03/23 06:25:26;;;;;;;11.10;4.37;;;;;;;4.77;65.06;101688.94;5010699;28;20408;-73
2022/03/23 06:27:52;;;;;;;6.53;3.72;;;;;;;4.92;62.68;101704.63;5011199;28;20029;-78
2022/03/23 06:30:27;;;;;;;10.18;3.78;;;;;;;4.98;61.84;101700.88;5008690;28;20041;-75
2022/03/23 06:32:53;;;;;;;14.53;4.27;;;;;;;5.16;62.33;101733.84;5010832;28;20187;-74
2022/03/23 06:35:18;;;;;;;14.15;4.35;;;;;;;5.34;61.10;101722.47;5019288;28;20139;-75
2022/03/23 06:37:44;;;;;;;9.20;4.20;;;;;;;5.53;61.33;101728.16;5010135;28;20025;-75
2022/03/23 06:40:10;;;;;;;10.25;3.60;;;;;;;5.57;61.28;101728.50;5009754;28;20063;-75
2022/03/23 06:42:36;;;;;;;5.95;3.22;;;;;;;5.64;59.76;101720.50;5008438;28;20125;-74
2022/03/23 06:45:03;;;;;;;7.82;3.00;;;;;;;5.66;59.77;101702.72;5010046;28;20113;-74
2022/03/23 06:47:32;;;;;;;6.78;3.70;;;;;;;5.97;57.65;101713.63;5009901;28;20076;-74
2022/03/23 06:49:57;;;;;;;9.00;4.70;;;;;;;5.92;58.49;101681.63;5009704;28;20022;-74
2022/03/23 06:52:23;;;;;;;7.60;3.65;;;;;;;6.42;59.46;101719.53;5010850;28;21868;-73
2022/03/23 06:54:49;;;;;;;9.48;4.57;;;;;;;6.58;55.54;101721.56;5011563;28;20033;-75
2022/03/23 06:57:14;;;;;;;15.30;8.68;;;;;;;6.59;52.83;101727.56;5019252;28;20503;-74
2022/03/23 06:59:40;;;;;;;13.45;7.25;;;;;;;6.60;54.49;101721.66;5029583;28;20396;-77
2022/03/23 07:02:08;;;;;;;11.75;3.95;;;;;;;6.46;53.55;101669.34;5029811;28;20034;-75
2022/03/23 07:04:34;;;;;;;9.77;5.07;;;;;;;6.83;52.58;101710.50;5027751;28;20063;-82
2022/03/23 07:07:00;;;;;;;8.48;3.00;;;;;;;6.86;50.56;101705.59;5022652;28;20035;-78
2022/03/23 07:09:31;;;;;;;14.32;4.05;;;;;;;6.84;48.11;101712.31;5018727;28;20095;-76
2022/03/23 07:11:58;;;;;;;11.00;3.63;;;;;;;6.94;47.46;101704.47;5027937;28;20025;-76
2022/03/23 07:14:23;;;;;;;7.63;3.20;;;;;;;7.02;47.10;101694.75;5019361;28;20025;-77
2022/03/23 07:16:49;;;;;;;11.02;3.83;;;;;;;7.07;47.80;101682.22;5021482;28;20148;-77
2022/03/23 07:19:14;;;;;;;8.50;3.45;;;;;;;7.15;45.48;101670.81;5030580;28;20462;-75
2022/03/23 07:21:40;;;;;;;9.40;4.50;;;;;;;7.31;44.24;101697.59;5028578;28;20040;-74
2022/03/23 07:24:07;;;;;;;11.45;6.25;;;;;;;7.33;43.63;101696.00;5020119;28;20022;-75
2022/03/23 07:26:32;;;;;;;9.30;3.97;;;;;;;7.35;42.60;101700.47;5018587;28;20034;-75
2022/03/23 07:28:58;;;;;;;6.53;4.22;;;;;;;7.54;42.55;101687.22;5020807;28;20143;-76
2022/03/23 07:31:24;;;;;;;6.63;3.58;;;;;;;7.90;41.12;101699.88;5019927;28;20037;-77
2022/03/23 07:33:50;;;;;;;7.97;3.40;;;;;;;8.02;41.31;101698.16;5019098;28;20029;-76
2022/03/23 07:36:16;;;;;;;9.98;3.92;;;;;;;8.10;41.62;101698.69;5020938;28;20028;-75
2022/03/23 07:38:41;;;;;;;8.27;4.15;;;;;;;8.24;41.30;101699.59;5019308;28;20488;-74
2022/03/23 07:41:06;;;;;;;7.80;3.80;;;;;;;8.22;40.04;101688.31;5017170;28;20041;-75
2022/03/23 07:43:32;;;;;;;8.55;3.47;;;;;;;8.18;40.57;101689.78;5022895;28;20061;-75
2022/03/23 07:45:58;;;;;;;9.05;3.67;;;;;;;8.21;41.25;101694.22;5022567;28;20469;-76
2022/03/23 07:48:24;;;;;;;7.43;3.42;;;;;;;8.41;40.47;101695.53;5023060;28;20029;-75
2022/03/23 07:50:52;;;;;;;36.33;19.90;;;;;;;8.60;39.54;101678.75;5024268;28;20025;-73
2022/03/23 07:53:20;;;;;;;7.18;3.25;;;;;;;8.15;41.00;101614.09;5024620;28;20025;-75
2022/03/23 07:55:45;;;;;;;10.15;3.60;;;;;;;8.62;40.96;101695.19;5023539;28;20033;-76
2022/03/23 07:58:11;;;;;;;14.57;7.78;;;;;;;8.73;37.71;101666.78;5021859;28;20516;-75
2022/03/23 08:00:38;;;;;;;7.80;3.17;;;;;;;8.91;35.71;101663.59;5024218;28;20112;-75
2022/03/23 08:03:07;;;;;;;6.45;2.90;;;;;;;9.00;35.58;101665.84;5022977;28;20025;-75
2022/03/23 08:05:32;;;;;;;5.50;2.93;;;;;;;8.84;35.31;101628.81;5021954;28;20652;-75
2022/03/23 08:07:58;;;;;;;6.53;2.65;;;;;;;9.21;35.84;101651.72;5023751;28;20296;-75
2022/03/23 08:10:23;;;;;;;6.30;3.80;;;;;;;9.20;34.48;101623.28;5022805;28;20029;-75
2022/03/23 08:12:51;;;;;;;6.78;3.65;;;;;;;9.22;34.81;101643.19;5022248;28;20101;-76
2022/03/23 08:15:16;;;;;;;4.53;2.53;;;;;;;9.38;33.76;101652.75;5023901;28;20065;-75
2022/03/23 08:17:42;;;;;;;6.97;3.60;;;;;;;9.28;34.01;101640.09;5022383;28;20037;-75
2022/03/23 08:22:56;;;;;;;8.95;4.47;;;;;;;9.54;35.80;101631.38;5023783;28;20064;-74
2022/03/23 08:25:21;;;;;;;6.90;4.20;;;;;;;9.67;35.26;101630.41;5023326;28;20420;-74
2022/03/23 08:27:48;;;;;;;4.00;2.50;;;;;;;9.62;33.88;101612.88;5022468;28;20034;-74
2022/03/23 08:30:14;;;;;;;5.80;2.92;;;;;;;9.93;32.83;101643.97;5021256;28;20038;-74
2022/03/23 08:32:40;;;;;;;6.25;2.60;;;;;;;9.96;31.85;101626.06;5023127;28;20084;-75
2022/03/23 08:35:06;;;;;;;5.45;2.75;;;;;;;10.07;32.61;101641.25;5022548;28;20021;-75
2022/03/23 08:37:32;;;;;;;6.35;3.17;;;;;;;10.12;33.16;101640.75;5021331;28;20113;-74
2022/03/23 08:39:58;;;;;;;6.93;2.75;;;;;;;10.26;35.16;101633.78;5023616;28;20104;-75
2022/03/23 08:42:23;;;;;;;4.47;2.35;;;;;;;9.85;32.58;101611.66;5022128;28;20088;-74
2022/03/23 08:44:49;;;;;;;6.38;3.35;;;;;;;9.95;33.52;101634.59;5021591;28;20486;-74
2022/03/23 08:47:16;;;;;;;6.40;2.58;;;;;;;9.89;33.04;101623.91;5021748;28;20097;-74
2022/03/23 08:49:41;;;;;;;5.53;3.15;;;;;;;10.05;32.68;101617.97;5021823;28;20032;-74
2022/03/23 08:52:07;;;;;;;15.65;4.70;;;;;;;10.15;33.77;101617.69;5022006;28;20029;-76
2022/03/23 08:54:32;;;;;;;41.65;18.63;;;;;;;10.16;31.74;101609.16;5012289;28;20688;-76
2022/03/23 08:56:58;;;;;;;7.03;3.22;;;;;;;10.16;30.69;101608.28;5012519;28;20049;-76
2022/03/23 08:59:24;;;;;;;5.45;3.10;;;;;;;10.09;30.81;101614.75;5012568;28;20040;-76
2022/03/23 09:01:49;;;;;;;9.00;4.53;;;;;;;9.76;30.52;101551.78;5012450;28;20026;-77
2022/03/23 09:04:15;;;;;;;14.77;7.78;;;;;;;10.25;29.97;101606.19;5012639;28;20030;-77
2022/03/23 09:06:40;;;;;;;8.10;2.58;;;;;;;10.22;29.80;101592.22;5009904;28;20041;-76
2022/03/23 09:09:06;;;;;;;3.95;2.45;;;;;;;10.41;30.53;101594.19;5012168;28;20108;-77
2022/03/23 09:11:32;;;;;;;6.32;2.70;;;;;;;10.43;28.46;101582.25;5012604;28;20034;-76
2022/03/23 09:13:58;;;;;;;4.93;2.80;;;;;;;10.46;28.79;101585.88;5012577;28;20037;-75
2022/03/23 09:16:23;;;;;;;4.90;2.10;;;;;;;10.51;28.29;101599.06;5012475;28;20033;-78
2022/03/23 09:18:49;;;;;;;4.95;2.30;;;;;;;10.81;28.79;101596.38;5012078;28;20034;-76
2022/03/23 09:21:15;;;;;;;5.30;2.15;;;;;;;10.79;29.61;101564.41;5012249;28;20476;-77
2022/03/23 09:23:41;;;;;;;4.25;2.35;;;;;;;10.97;28.82;101567.09;5011948;28;20037;-77
2022/03/23 09:26:11;;;;;;;6.55;2.10;;;;;;;10.91;28.39;101587.44;5022541;28;20467;-77
2022/03/23 09:28:37;;;;;;;4.93;2.55;;;;;;;11.13;29.93;101585.19;5028093;28;20038;-77
2022/03/23 09:31:03;;;;;;;5.88;2.80;;;;;;;11.17;28.46;101570.72;5030611;28;20052;-75
2022/03/23 09:33:29;;;;;;;12.38;3.33;;;;;;;11.05;26.46;101565.78;5030874;28;20029;-75
2022/03/23 09:35:55;;;;;;;3.75;2.20;;;;;;;11.34;27.53;101584.53;5032467;28;20025;-77
2022/03/23 09:38:20;;;;;;;10.52;5.38;;;;;;;11.41;28.38;101563.31;5031084;28;20029;-76
2022/03/23 09:40:50;;;;;;;8.10;2.97;;;;;;;11.61;29.09;101572.13;5019065;28;20404;-77
2022/03/23 09:43:19;;;;;;;9.07;4.00;;;;;;;11.55;26.77;101558.88;5010148;28;20100;-76
2022/03/23 09:48:11;;;;;;;3.78;1.80;;;;;;;11.41;25.76;101565.91;5011802;28;20037;-76
2022/03/23 09:50:39;;;;;;;8.82;3.20;;;;;;;11.55;26.08;101548.53;5010785;28;20045;-76
2022/03/23 09:53:05;;;;;;;7.45;2.10;;;;;;;11.69;26.65;101550.91;5008464;28;20041;-76
2022/03/23 09:55:31;;;;;;;6.20;2.95;;;;;;;11.77;25.29;101560.81;5009192;28;20037;-77
2022/03/23 09:57:58;;;;;;;5.35;2.60;;;;;;;11.64;25.46;101532.59;5010648;28;20042;-82
2022/03/23 10:00:27;;;;;;;3.92;2.10;;;;;;;12.14;25.66;101559.19;5009779;28;20034;-78
2022/03/23 10:02:56;;;;;;;3.33;2.30;;;;;;;12.16;25.19;101551.50;5009971;28;20060;-77
2022/03/23 10:05:24;;;;;;;4.65;2.08;;;;;;;12.37;26.09;101544.72;5009950;28;20029;-77
2022/03/23 10:07:54;;;;;;;6.88;2.00;;;;;;;12.19;25.45;101541.31;5008812;28;20488;-81
2022/03/23 10:10:19;;;;;;;3.70;2.20;;;;;;;12.26;26.01;101554.59;5013131;28;20038;-78
2022/03/23 10:13:38;;;;;;;4.57;1.90;;;;;;;12.17;24.95;101535.16;5010574;28;20028;-78
2022/03/23 10:16:44;;;;;;;3.50;2.15;;;;;;;12.54;26.26;101539.47;5009723;28;20030;-78
2022/03/23 10:19:10;;;;;;;4.85;2.65;;;;;;;12.70;24.60;101534.16;5007546;28;20034;-79
2022/03/23 10:21:38;;;;;;;4.40;2.10;;;;;;;12.88;25.46;101521.13;4991253;28;20034;-78
2022/03/23 10:24:04;;;;;;;4.32;2.35;;;;;;;12.79;25.54;101519.00;5007449;28;20034;-79
2022/03/23 10:26:32;;;;;;;8.25;3.58;;;;;;;12.84;25.32;101495.91;5007278;28;20040;-78
2022/03/23 10:28:58;;;;;;;7.53;2.40;;;;;;;12.67;25.93;101521.06;5010358;28;20037;-78
2022/03/23 10:31:26;;;;;;;9.15;2.95;;;;;;;12.82;28.31;101519.97;5008295;28;20543;-79
2022/03/23 10:34:07;;;;;;;7.47;2.35;;;;;;;12.87;26.52;101510.69;5007222;28;20510;-78
2022/03/23 10:36:33;;;;;;;6.00;2.17;;;;;;;13.01;26.86;101506.13;5007616;28;20125;-78
2022/03/23 10:39:06;;;;;;;6.03;2.65;;;;;;;13.05;26.37;101493.38;5007527;28;20057;-78
2022/03/23 10:41:32;;;;;;;4.35;2.63;;;;;;;13.21;26.19;101491.44;4991159;28;20046;-78
2022/03/23 10:43:58;;;;;;;8.30;2.97;;;;;;;13.35;25.95;101502.41;5007630;28;20090;-77
2022/03/23 10:46:24;;;;;;;4.78;2.13;;;;;;;13.13;25.26;101506.66;5006718;28;20079;-77
2022/03/23 10:49:01;;;;;;;9.13;2.75;;;;;;;13.13;25.04;101498.00;5007613;28;20467;-77
2022/03/23 10:51:32;;;;;;;5.38;2.30;;;;;;;13.40;24.39;101488.81;5009621;28;20096;-77
2022/03/23 10:53:59;;;;;;;5.97;2.50;;;;;;;13.47;26.89;101478.69;5010122;28;20026;-78
2022/03/23 10:56:34;;;;;;;15.30;3.70;;;;;;;13.38;25.36;101468.84;5009728;28;20018;-78
2022/03/23 10:59:22;;;;;;;22.17;3.88;;;;;;;12.97;25.58;101481.78;5010240;28;20105;-78
2022/03/23 11:02:08;;;;;;;4.93;2.20;;;;;;;13.17;24.71;101438.56;5010366;28;20041;-77
2022/03/23 11:04:56;;;;;;;5.13;2.60;;;;;;;13.59;25.02;101471.41;5009818;28;20048;-82
2022/03/23 11:07:35;;;;;;;6.80;3.97;;;;;;;13.78;25.74;101473.03;5009957;28;20038;-80
2022/03/23 11:15:46;;;;;;;11.02;3.75;;;;;;;13.17;25.06;101435.06;5009984;28;20455;-79
2022/03/23 11:18:17;;;;;;;9.25;4.15;;;;;;;13.65;26.05;101463.88;5011688;28;20451;-81
2022/03/23 11:20:48;;;;;;;10.60;3.05;;;;;;;13.62;25.44;101450.81;5013547;28;20056;-81
2022/03/23 11:23:20;;;;;;;6.85;3.25;;;;;;;13.93;25.86;101449.41;5012038;28;20092;-80
2022/03/23 11:25:48;;;;;;;16.27;4.20;;;;;;;13.68;24.59;101427.69;5013288;28;20458;-79
2022/03/23 11:28:15;;;;;;;7.60;3.25;;;;;;;13.59;25.16;101437.69;5013192;28;20772;-80
2022/03/23 11:30:41;;;;;;;11.40;4.13;;;;;;;13.44;24.90;101417.22;5013253;28;20042;-80
2022/03/23 11:33:09;;;;;;;7.82;3.47;;;;;;;13.90;25.01;101442.38;5013400;28;20025;-79
2022/03/23 11:35:37;;;;;;;12.82;3.58;;;;;;;13.78;25.29;101438.44;5012950;28;20038;-79
2022/03/23 11:38:06;;;;;;;5.60;2.50;;;;;;;13.70;23.74;101431.22;5011550;28;20037;-80
2022/03/23 11:40:33;;;;;;;33.47;4.63;;;;;;;13.71;25.86;101396.66;5011801;28;20026;-82
2022/03/23 11:42:58;;;;;;;16.58;4.97;;;;;;;13.78;25.19;101417.66;5012155;28;20033;-81
2022/03/23 11:45:24;;;;;;;29.98;4.53;;;;;;;13.70;24.62;101402.66;5013535;28;20026;-79